Flugplatz Celle-Arloh

Für EDVC sind keine METAR/TAF Berichte vorhanden.
Es werden die Flugwettermeldungen vom Flugplatz Celle Airport in 12 km Entfernung angezeigt.

Bericht für ETHC

vom 27.09. um 00:20 UTC

Wind 7 kt aus 170°

Sichtweite 9000 m

schwacher Sprühregen

aufgelockert bewölkt in 300 ft

aufgebrochene Bewölkung in 700 ft

Temperatur 10.0°C

Taupunkt 9.0°C

Luftfeuchtigkeit 93%

Luftdruck 995 hPa

ETHC 270020Z 17007KT 9000 -DZ SCT003 BKN007 10/09 Q0995 GRN
Keine Prognose (TAF) verfügbar.
Impressum